Time;durP1;ratioP1;P1;durP2;ratioP2;P2;SDS_P1;SDS_P2;PMS_P1;PMS_P2;Temp;Humidity;BMP_temperature;BMP_pressure;BME280_temperature;BME280_humidity;BME280_pressure;Samples;Min_cycle;Max_cycle;Signal;HPM_P1;HPM_P2
2021/05/16 00:01:10;;;;;;;3.83;1.80;;;15.60;91.00;23.40;98365.00;;;;5055391;28;20741;-70
2021/05/16 00:03:37;;;;;;;3.50;1.80;;;15.60;90.90;23.40;98358.00;;;;5070686;28;20867;-71
2021/05/16 00:06:03;;;;;;;3.70;1.70;;;15.60;90.90;23.50;98362.00;;;;5055201;28;20474;-71
2021/05/16 00:08:28;;;;;;;3.70;1.90;;;15.60;90.90;23.40;98360.00;;;;5071262;28;20444;-70
2021/05/16 00:10:55;;;;;;;3.20;1.43;;;15.60;91.00;23.20;98351.00;;;;5071006;28;20459;-71
2021/05/16 00:13:20;;;;;;;3.70;2.07;;;15.60;90.90;23.30;98355.00;;;;5072863;28;20181;-71
2021/05/16 00:15:46;;;;;;;3.70;1.80;;;15.60;91.00;23.30;98356.00;;;;5071090;28;20842;-71
2021/05/16 00:18:12;;;;;;;4.00;2.10;;;15.60;91.00;23.40;98349.00;;;;5054487;28;20217;-71
2021/05/16 00:20:37;;;;;;;3.60;1.73;;;15.60;91.00;23.30;98349.00;;;;5070870;28;20215;-72
2021/05/16 00:23:04;;;;;;;4.03;1.90;;;15.60;91.00;23.30;98352.00;;;;5054482;28;20862;-71
2021/05/16 00:25:30;;;;;;;3.73;1.90;;;15.60;91.00;23.30;98343.00;;;;5070775;28;20209;-71
2021/05/16 00:27:56;;;;;;;4.67;2.03;;;15.60;91.00;23.30;98352.00;;;;5054973;28;20519;-71
2021/05/16 00:30:25;;;;;;;3.83;1.97;;;15.60;91.00;23.20;98336.00;;;;5054471;28;21195;-70
2021/05/16 00:32:51;;;;;;;3.90;1.97;;;15.60;91.00;23.30;98341.00;;;;5070815;28;20879;-71
2021/05/16 00:35:19;;;;;;;4.17;1.97;;;15.60;91.00;23.30;98343.00;;;;5053768;28;21082;-71
2021/05/16 00:37:45;;;;;;;4.20;2.37;;;15.60;91.00;23.30;98335.00;;;;5037641;28;20516;-71
2021/05/16 00:40:11;;;;;;;3.90;1.70;;;15.60;91.10;23.30;98335.00;;;;5054038;28;20433;-71
2021/05/16 00:42:37;;;;;;;3.70;1.80;;;15.60;91.10;23.30;98335.00;;;;5071062;28;20449;-71
2021/05/16 00:45:07;;;;;;;3.80;2.07;;;15.60;91.10;23.30;98327.00;;;;5053262;28;20486;-71
2021/05/16 00:47:34;;;;;;;4.37;2.30;;;15.60;91.10;23.30;98321.00;;;;5071011;28;20196;-71
2021/05/16 00:50:00;;;;;;;4.10;2.13;;;15.60;91.10;23.30;98326.00;;;;5053760;28;20466;-71
2021/05/16 00:52:26;;;;;;;5.50;2.77;;;15.60;91.10;23.20;98324.00;;;;5053954;28;20422;-72
2021/05/16 00:54:53;;;;;;;4.27;1.73;;;15.60;91.10;23.20;98314.00;;;;5054071;28;20307;-71
2021/05/16 00:57:18;;;;;;;3.60;1.83;;;15.60;91.20;23.20;98321.00;;;;5037640;28;20888;-69
2021/05/16 00:59:44;;;;;;;6.23;2.10;;;15.60;91.10;23.10;98329.00;;;;5069668;28;20477;-73
2021/05/16 01:02:10;;;;;;;3.97;2.10;;;15.60;91.50;23.20;98329.00;;;;5053962;28;20299;-73
2021/05/16 01:04:37;;;;;;;3.40;1.70;;;15.60;91.10;23.20;98329.00;;;;5053517;28;20551;-73
2021/05/16 01:07:03;;;;;;;4.60;2.07;;;15.60;91.20;23.20;98332.00;;;;5053671;28;20649;-72
2021/05/16 01:09:29;;;;;;;5.67;1.90;;;15.60;91.10;23.20;98335.00;;;;5069916;28;20434;-73
2021/05/16 01:11:55;;;;;;;5.13;2.07;;;15.60;91.10;23.20;98345.00;;;;5053076;28;20177;-73
2021/05/16 01:14:31;;;;;;;4.17;2.10;;;15.60;91.10;23.10;98341.00;;;;5036611;28;20186;-73
2021/05/16 01:16:56;;;;;;;3.90;1.90;;;15.60;91.10;23.10;98350.00;;;;5070020;28;20431;-73
2021/05/16 01:19:22;;;;;;;4.30;2.30;;;15.60;91.10;23.10;98349.00;;;;5069709;28;21037;-73
2021/05/16 01:21:49;;;;;;;3.70;2.03;;;15.60;91.10;23.10;98355.00;;;;5053099;28;20717;-72
2021/05/16 01:24:16;;;;;;;3.60;1.87;;;15.50;91.10;23.20;98346.00;;;;5036675;28;20471;-72
2021/05/16 01:26:44;;;;;;;4.10;2.07;;;15.60;91.10;23.20;98358.00;;;;5037035;28;20940;-71
2021/05/16 01:29:11;;;;;;;3.80;1.70;;;15.50;91.10;23.00;98353.00;;;;5053678;28;20987;-72
2021/05/16 01:31:37;;;;;;;3.70;1.90;;;15.50;91.10;23.20;98364.00;;;;5069953;28;20440;-73
2021/05/16 01:34:03;;;;;;;5.40;1.90;;;15.50;91.00;23.10;98350.00;;;;5052928;28;20866;-72
2021/05/16 01:36:29;;;;;;;4.00;2.10;;;15.50;91.10;23.10;98350.00;;;;5053090;28;20459;-72
2021/05/16 01:38:55;;;;;;;4.03;2.37;;;15.50;91.00;23.20;98348.00;;;;5070915;28;20431;-71
2021/05/16 01:41:20;;;;;;;3.50;1.80;;;15.50;91.00;23.30;98360.00;;;;5052446;28;20212;-71
2021/05/16 01:43:48;;;;;;;4.20;2.17;;;15.50;91.00;23.20;98365.00;;;;5069825;28;20216;-72
2021/05/16 01:46:15;;;;;;;3.87;2.17;;;15.50;91.00;23.10;98366.00;;;;5068834;28;20198;-71
2021/05/16 01:48:41;;;;;;;4.10;2.13;;;15.50;91.10;23.10;98366.00;;;;5069384;28;20435;-72
2021/05/16 01:51:07;;;;;;;3.87;1.90;;;15.50;91.00;23.00;98366.00;;;;5052421;28;20462;-71
2021/05/16 01:53:34;;;;;;;4.00;2.13;;;15.50;91.10;23.00;98359.00;;;;5053106;28;20230;-71
2021/05/16 01:56:00;;;;;;;3.57;1.90;;;15.50;91.00;23.10;98364.00;;;;5069118;28;20456;-72
2021/05/16 01:58:26;;;;;;;3.70;1.60;;;15.50;91.10;23.10;98334.00;;;;5052660;28;20797;-72
2021/05/16 02:00:52;;;;;;;3.73;1.93;;;15.50;91.10;23.10;98359.00;;;;5036051;28;20255;-71
2021/05/16 02:03:18;;;;;;;4.30;2.10;;;15.50;91.10;23.00;98370.00;;;;5052086;28;20457;-71
2021/05/16 02:05:44;;;;;;;3.90;2.00;;;15.50;91.10;23.10;98372.00;;;;5069089;28;20274;-71
2021/05/16 02:08:09;;;;;;;4.30;2.10;;;15.50;91.10;23.20;98367.00;;;;5052858;28;20185;-71
2021/05/16 02:10:35;;;;;;;4.30;2.37;;;15.50;91.10;23.10;98377.00;;;;5068801;28;20992;-71
2021/05/16 02:13:01;;;;;;;6.20;2.30;;;15.50;91.10;23.20;98374.00;;;;5052560;28;20181;-71
2021/05/16 02:15:27;;;;;;;4.27;2.30;;;15.50;91.10;23.10;98369.00;;;;5068805;28;20243;-71
2021/05/16 02:17:57;;;;;;;4.40;2.07;;;15.50;91.10;23.00;98380.00;;;;5068577;28;20435;-71
2021/05/16 02:20:23;;;;;;;4.00;2.23;;;15.50;91.10;23.20;98385.00;;;;5068535;28;20255;-71
2021/05/16 02:22:49;;;;;;;4.10;2.30;;;15.50;91.10;23.00;98379.00;;;;5070039;28;20847;-71
2021/05/16 02:25:14;;;;;;;3.80;2.00;;;15.50;91.10;23.10;98380.00;;;;5035350;28;20459;-71
2021/05/16 02:27:40;;;;;;;3.57;2.00;;;15.50;91.10;23.00;98390.00;;;;5070062;28;20436;-71
2021/05/16 02:30:09;;;;;;;3.50;1.70;;;15.50;91.10;23.00;98381.00;;;;5034617;28;20201;-72
2021/05/16 02:32:36;;;;;;;3.70;2.07;;;15.50;91.10;23.00;98381.00;;;;5068647;28;20848;-71
2021/05/16 02:35:03;;;;;;;4.10;2.30;;;15.50;91.10;23.10;98385.00;;;;5034825;28;20438;-71
2021/05/16 02:37:28;;;;;;;3.90;2.00;;;15.50;91.20;23.00;98388.00;;;;5051767;28;20412;-72
2021/05/16 02:39:54;;;;;;;4.20;2.00;;;15.50;91.10;23.00;98390.00;;;;5052153;28;20426;-72
2021/05/16 02:42:20;;;;;;;4.10;2.17;;;15.50;91.20;23.10;98393.00;;;;5051775;28;20882;-72
2021/05/16 02:44:45;;;;;;;3.63;1.60;;;15.50;91.20;23.10;98395.00;;;;5069717;28;20197;-72
2021/05/16 02:47:11;;;;;;;4.07;2.17;;;15.50;91.20;23.20;98381.00;;;;5070112;28;20254;-72
2021/05/16 02:49:37;;;;;;;3.90;1.90;;;15.50;91.20;23.10;98399.00;;;;5068421;28;20269;-72
2021/05/16 02:52:03;;;;;;;3.67;2.00;;;15.50;91.20;23.10;98400.00;;;;5068498;28;20646;-72
2021/05/16 02:54:28;;;;;;;4.13;2.13;;;15.50;91.20;23.00;98400.00;;;;5068742;28;20352;-72
2021/05/16 02:56:54;;;;;;;3.70;2.20;;;15.50;91.20;22.90;98409.00;;;;5051788;28;20182;-72
2021/05/16 02:59:21;;;;;;;4.00;2.00;;;15.50;91.20;23.10;98416.00;;;;5067679;28;20219;-72
2021/05/16 03:01:47;;;;;;;4.80;2.27;;;15.50;91.20;22.90;98418.00;;;;5068447;28;20610;-72
2021/05/16 03:04:13;;;;;;;3.80;1.93;;;15.50;91.20;22.90;98414.00;;;;5067705;28;20617;-72
2021/05/16 03:06:39;;;;;;;5.53;2.10;;;15.40;91.10;22.90;98420.00;;;;5067894;28;20184;-72
2021/05/16 03:09:05;;;;;;;4.33;2.10;;;15.50;91.20;22.90;98413.00;;;;5067991;28;20670;-72
2021/05/16 03:11:31;;;;;;;4.30;2.30;;;15.40;91.10;23.00;98413.00;;;;5069498;28;20440;-73
2021/05/16 03:13:57;;;;;;;3.70;1.90;;;15.40;91.20;22.90;98412.00;;;;5051265;28;20446;-73
2021/05/16 03:16:23;;;;;;;3.90;2.20;;;15.50;91.20;23.00;98414.00;;;;5069967;28;20245;-74
2021/05/16 03:18:48;;;;;;;7.17;2.13;;;15.40;91.20;22.90;98418.00;;;;5051821;28;20188;-74
2021/05/16 03:21:14;;;;;;;3.83;1.87;;;15.40;91.20;22.80;98423.00;;;;5067465;28;20570;-74
2021/05/16 03:23:40;;;;;;;3.80;1.93;;;15.40;91.20;23.00;98411.00;;;;5068569;28;20212;-74
2021/05/16 03:26:05;;;;;;;3.80;2.30;;;15.40;91.20;22.90;98421.00;;;;5069486;28;20725;-73
2021/05/16 03:28:31;;;;;;;3.70;1.90;;;15.40;91.20;23.00;98410.00;;;;5068314;28;20178;-72
2021/05/16 03:30:57;;;;;;;5.30;2.00;;;15.40;91.20;22.90;98421.00;;;;5051785;28;20232;-72
2021/05/16 03:33:23;;;;;;;3.53;1.90;;;15.40;91.20;22.80;98416.00;;;;5051190;28;20827;-73
2021/05/16 03:35:49;;;;;;;3.73;1.70;;;15.40;91.20;22.70;98419.00;;;;5051090;28;20444;-73
2021/05/16 03:38:15;;;;;;;3.60;1.97;;;15.40;91.20;22.90;98416.00;;;;5051719;28;20182;-74
2021/05/16 03:40:41;;;;;;;3.80;1.93;;;15.40;91.20;22.90;98404.00;;;;5051473;28;20455;-72
2021/05/16 03:43:07;;;;;;;3.70;1.90;;;15.40;91.20;22.90;98405.00;;;;5034245;28;20870;-72
2021/05/16 03:45:33;;;;;;;3.40;1.63;;;15.40;91.20;23.00;98417.00;;;;5069459;28;20541;-72
2021/05/16 03:47:59;;;;;;;3.97;2.20;;;15.40;91.20;23.00;98431.00;;;;5050467;28;20182;-73
2021/05/16 03:50:24;;;;;;;3.90;1.70;;;15.40;91.20;22.80;98429.00;;;;5051507;28;20552;-72
2021/05/16 03:52:50;;;;;;;4.30;1.90;;;15.40;91.10;23.00;98435.00;;;;5067927;28;20178;-72
2021/05/16 03:55:18;;;;;;;4.07;2.10;;;15.40;91.20;22.90;98436.00;;;;5050760;28;20625;-72
2021/05/16 03:57:43;;;;;;;3.97;1.90;;;15.40;91.20;23.10;98438.00;;;;5051769;28;20177;-73
2021/05/16 04:00:10;;;;;;;3.70;2.13;;;15.40;91.20;23.00;98446.00;;;;5050994;28;20930;-73
2021/05/16 04:02:35;;;;;;;3.50;1.67;;;15.40;91.20;23.10;98449.00;;;;5067483;28;20315;-72
2021/05/16 04:05:01;;;;;;;3.50;1.70;;;15.40;91.20;23.20;98457.00;;;;5068144;28;21128;-74
2021/05/16 04:07:27;;;;;;;3.70;1.90;;;15.40;91.20;23.10;98455.00;;;;5050759;28;20189;-73
2021/05/16 04:09:52;;;;;;;4.13;2.23;;;15.40;91.20;23.00;98473.00;;;;5035227;28;20209;-73
2021/05/16 04:12:24;;;;;;;4.60;2.23;;;15.40;91.20;23.10;98474.00;;;;5072646;28;20665;-74
2021/05/16 04:14:50;;;;;;;6.97;2.07;;;15.40;91.20;23.00;98477.00;;;;5071438;28;20213;-74
2021/05/16 04:17:19;;;;;;;3.70;2.07;;;15.40;91.20;23.10;98490.00;;;;5037705;28;20499;-75
2021/05/16 04:19:45;;;;;;;3.60;1.90;;;15.40;91.20;23.10;98491.00;;;;5055071;28;20459;-76
2021/05/16 04:22:11;;;;;;;3.60;1.43;;;15.40;91.20;23.20;98490.00;;;;5071822;28;20506;-76
2021/05/16 04:24:37;;;;;;;4.53;2.00;;;15.40;91.20;23.00;98495.00;;;;5071460;28;20542;-77
2021/05/16 04:27:03;;;;;;;4.10;2.50;;;15.40;91.20;23.00;98505.00;;;;5070581;28;20460;-77
2021/05/16 04:29:29;;;;;;;4.03;2.13;;;15.40;91.20;23.00;98502.00;;;;5071481;28;20213;-76
2021/05/16 04:31:54;;;;;;;3.67;1.77;;;15.40;91.20;22.90;98500.00;;;;5070741;28;20443;-75
2021/05/16 04:34:20;;;;;;;3.60;2.07;;;15.40;91.20;23.00;98499.00;;;;5054530;28;20532;-76
2021/05/16 04:36:46;;;;;;;3.70;1.80;;;15.40;91.20;23.10;98498.00;;;;5071051;28;20196;-76
2021/05/16 04:39:11;;;;;;;4.00;1.90;;;15.40;91.20;22.90;98500.00;;;;5053633;28;20185;-77
2021/05/16 04:41:37;;;;;;;3.87;1.90;;;15.40;91.20;22.90;98498.00;;;;5037776;28;20182;-76
2021/05/16 04:44:04;;;;;;;3.57;1.90;;;15.40;91.20;23.10;98513.00;;;;5054109;28;20293;-77
2021/05/16 04:46:29;;;;;;;4.17;2.00;;;15.40;91.20;23.00;98516.00;;;;5071058;28;20205;-76
2021/05/16 04:48:55;;;;;;;3.83;1.90;;;15.40;91.20;22.80;98510.00;;;;5072530;28;20443;-76
2021/05/16 04:51:21;;;;;;;3.70;1.77;;;15.40;91.20;22.70;98518.00;;;;5053161;28;20501;-78
2021/05/16 04:53:47;;;;;;;3.80;1.93;;;15.40;91.20;22.80;98509.00;;;;5070803;28;20178;-78
2021/05/16 04:56:12;;;;;;;3.70;1.60;;;15.40;91.20;22.70;98514.00;;;;5037293;28;20266;-78
2021/05/16 04:58:38;;;;;;;3.63;1.70;;;15.40;91.20;22.70;98506.00;;;;5020713;28;20185;-78
2021/05/16 05:01:05;;;;;;;3.83;1.83;;;15.40;91.20;22.60;98523.00;;;;5054093;28;20208;-79
2021/05/16 05:03:31;;;;;;;3.67;1.90;;;15.40;91.20;22.70;98515.00;;;;5053720;28;20235;-81
2021/05/16 05:05:57;;;;;;;3.60;1.77;;;15.40;91.20;22.80;98518.00;;;;5053363;28;20455;-78
2021/05/16 05:08:23;;;;;;;3.70;1.43;;;15.40;91.20;22.70;98523.00;;;;5070626;28;20493;-78
2021/05/16 05:10:49;;;;;;;3.80;2.00;;;15.40;91.10;22.70;98522.00;;;;5070517;28;20201;-76
2021/05/16 05:13:15;;;;;;;3.50;1.70;;;15.40;91.20;22.80;98523.00;;;;5053384;28;20457;-77
2021/05/16 05:15:41;;;;;;;4.40;1.60;;;15.40;91.10;22.70;98535.00;;;;5037348;28;20513;-77
2021/05/16 05:18:06;;;;;;;3.47;1.60;;;15.40;91.10;22.70;98528.00;;;;5070898;28;20256;-76
2021/05/16 05:20:33;;;;;;;3.90;1.70;;;15.40;91.10;22.80;98529.00;;;;5070421;28;20280;-77
2021/05/16 05:23:00;;;;;;;3.90;1.73;;;15.40;91.10;22.80;98523.00;;;;5053327;28;20205;-77
2021/05/16 05:25:27;;;;;;;4.43;1.87;;;15.40;91.10;22.90;98531.00;;;;5053899;28;20429;-77
2021/05/16 05:27:54;;;;;;;3.97;1.80;;;15.40;91.10;22.80;98522.00;;;;5070942;28;20907;-77
2021/05/16 05:30:22;;;;;;;3.47;1.30;;;15.40;91.10;22.90;98527.00;;;;5053455;28;21239;-77
2021/05/16 05:32:48;;;;;;;3.53;1.67;;;15.40;91.10;22.70;98541.00;;;;5070078;28;20417;-77
2021/05/16 05:35:14;;;;;;;5.13;1.70;;;15.40;91.10;22.80;98536.00;;;;5069831;28;20463;-77
2021/05/16 05:37:39;;;;;;;3.40;1.50;;;15.40;91.10;22.80;98527.00;;;;5069893;28;20181;-77
2021/05/16 05:40:06;;;;;;;3.50;1.63;;;15.40;91.10;22.80;98520.00;;;;5069645;28;20197;-77
2021/05/16 05:42:32;;;;;;;3.40;1.50;;;15.40;91.10;22.90;98536.00;;;;5053176;28;20224;-77
2021/05/16 05:44:58;;;;;;;3.87;1.73;;;15.40;91.10;22.80;98530.00;;;;5069345;28;20434;-78
2021/05/16 05:47:23;;;;;;;3.50;1.67;;;15.40;91.10;22.80;98531.00;;;;5053009;28;20174;-77
2021/05/16 05:49:49;;;;;;;3.70;1.50;;;15.40;91.10;22.90;98534.00;;;;5052879;28;20201;-78
2021/05/16 05:52:15;;;;;;;3.47;1.63;;;15.40;91.10;22.80;98545.00;;;;5052672;28;20260;-77
2021/05/16 05:54:40;;;;;;;3.70;1.77;;;15.30;91.00;22.90;98537.00;;;;5069462;28;20213;-78
2021/05/16 05:57:06;;;;;;;3.90;1.60;;;15.40;91.10;22.90;98545.00;;;;5052897;28;20273;-77
2021/05/16 05:59:32;;;;;;;3.60;1.60;;;15.30;91.10;22.80;98542.00;;;;5069185;28;20201;-78
2021/05/16 06:01:59;;;;;;;3.50;1.67;;;15.30;91.10;22.80;98549.00;;;;5052516;28;20522;-78
2021/05/16 06:04:25;;;;;;;3.70;1.67;;;15.30;91.10;22.80;98541.00;;;;5053022;28;20479;-78
2021/05/16 06:06:51;;;;;;;3.30;1.50;;;15.40;91.10;22.80;98547.00;;;;5052847;28;20504;-78
2021/05/16 06:09:17;;;;;;;3.67;1.50;;;15.30;91.10;22.80;98551.00;;;;5033498;28;20467;-78
2021/05/16 06:11:43;;;;;;;3.50;1.50;;;15.30;91.10;22.90;98553.00;;;;5066684;28;20283;-78
2021/05/16 06:14:08;;;;;;;3.63;1.57;;;15.40;91.10;22.90;98556.00;;;;5069567;28;20186;-78
2021/05/16 06:16:34;;;;;;;3.67;1.63;;;15.40;91.10;23.00;98558.00;;;;5068655;28;20169;-78
2021/05/16 06:19:00;;;;;;;3.30;1.43;;;15.30;91.10;22.80;98559.00;;;;5051468;28;20542;-77
2021/05/16 06:21:27;;;;;;;3.73;1.60;;;15.30;91.10;22.90;98562.00;;;;5034691;28;20242;-78
2021/05/16 06:26:31;;;;;;;3.47;1.60;;;15.30;91.20;22.80;98564.00;;;;5067717;28;20518;-78
2021/05/16 06:28:57;;;;;;;3.27;1.33;;;15.30;91.20;23.00;98577.00;;;;5034675;28;20440;-78
2021/05/16 06:31:23;;;;;;;3.23;1.33;;;15.40;91.20;22.90;98564.00;;;;5051323;28;20513;-79
2021/05/16 06:33:50;;;;;;;3.40;1.50;;;15.30;91.10;22.90;98560.00;;;;5050896;28;20185;-79
2021/05/16 06:36:16;;;;;;;3.67;1.50;;;15.30;91.10;22.90;98573.00;;;;5050946;28;20451;-79
2021/05/16 06:38:42;;;;;;;3.63;1.47;;;15.40;91.20;22.90;98568.00;;;;5051136;28;20978;-77
2021/05/16 06:41:07;;;;;;;3.60;1.60;;;15.40;91.20;22.80;98567.00;;;;5050372;28;20458;-79
2021/05/16 06:43:33;;;;;;;3.40;1.40;;;15.30;91.10;22.90;98575.00;;;;5068592;28;20244;-76
2021/05/16 06:45:59;;;;;;;4.77;1.80;;;15.30;91.20;22.80;98575.00;;;;5069229;28;20208;-79
2021/05/16 06:48:26;;;;;;;3.30;1.30;;;15.30;91.20;22.80;98574.00;;;;5069108;28;20264;-78
2021/05/16 06:50:52;;;;;;;3.67;1.70;;;15.40;91.20;22.80;98579.00;;;;5069932;28;20427;-79
2021/05/16 06:53:19;;;;;;;3.33;1.37;;;15.30;91.20;22.90;98593.00;;;;5068330;28;20561;-78
2021/05/16 06:55:45;;;;;;;3.27;1.30;;;15.30;91.20;22.90;98585.00;;;;5047384;28;20502;-79
2021/05/16 06:58:10;;;;;;;4.23;1.50;;;15.30;91.10;22.80;98580.00;;;;5051529;28;20943;-78
2021/05/16 07:00:36;;;;;;;3.90;1.40;;;15.30;91.20;22.80;98574.00;;;;5066966;28;20204;-77
2021/05/16 07:03:02;;;;;;;3.23;1.17;;;15.30;91.20;22.80;98584.00;;;;5051105;28;20305;-79
2021/05/16 07:05:28;;;;;;;3.27;1.27;;;15.30;91.20;22.90;98590.00;;;;5067852;28;20197;-78
2021/05/16 07:07:54;;;;;;;3.30;1.40;;;15.30;91.20;22.90;98591.00;;;;5051516;28;20442;-78
2021/05/16 07:10:19;;;;;;;3.40;1.10;;;15.30;91.20;23.10;98592.00;;;;5050507;28;20551;-78
2021/05/16 07:12:45;;;;;;;3.40;1.30;;;15.30;91.20;23.00;98596.00;;;;5051225;28;20932;-78
2021/05/16 07:15:13;;;;;;;3.27;1.23;;;15.30;91.10;22.80;98590.00;;;;5067295;28;20246;-77
2021/05/16 07:17:40;;;;;;;3.20;1.10;;;15.40;91.20;22.80;98593.00;;;;5051224;28;20439;-76
2021/05/16 07:20:06;;;;;;;3.47;1.33;;;15.30;91.20;22.80;98570.00;;;;5051133;28;20556;-78
2021/05/16 07:22:32;;;;;;;3.27;1.30;;;15.30;91.20;22.90;98598.00;;;;5068316;28;20483;-77
2021/05/16 07:24:58;;;;;;;3.63;1.30;;;15.30;91.20;23.00;98599.00;;;;5068291;28;20794;-76
2021/05/16 07:27:24;;;;;;;3.50;1.33;;;15.40;91.20;23.00;98586.00;;;;5034570;28;20276;-75
2021/05/16 07:29:50;;;;;;;3.30;1.30;;;15.40;91.20;23.20;98603.00;;;;5068730;28;20399;-77
2021/05/16 07:32:16;;;;;;;3.70;1.23;;;15.40;91.20;23.20;98605.00;;;;5035026;28;20181;-76
2021/05/16 07:34:41;;;;;;;3.70;1.70;;;15.40;91.20;23.20;98585.00;;;;5069370;28;20478;-76
2021/05/16 07:37:08;;;;;;;3.00;1.10;;;15.40;91.20;23.20;98597.00;;;;5035229;28;20432;-75
2021/05/16 07:39:34;;;;;;;3.40;1.30;;;15.40;91.10;23.20;98577.00;;;;5051046;28;20208;-76
2021/05/16 07:42:00;;;;;;;3.20;1.20;;;15.40;91.10;23.20;98594.00;;;;5068644;28;20439;-77
2021/05/16 07:44:25;;;;;;;3.20;1.10;;;15.30;90.80;23.20;98597.00;;;;5067977;28;20547;-75
2021/05/16 07:46:51;;;;;;;4.67;1.40;;;15.40;91.00;23.10;98598.00;;;;5055455;28;20226;-75
2021/05/16 07:49:17;;;;;;;3.30;1.30;;;15.40;90.90;23.00;98605.00;;;;5055409;28;20201;-75
2021/05/16 07:51:42;;;;;;;7.20;1.20;;;15.40;91.10;23.00;98599.00;;;;5054719;28;20655;-74
2021/05/16 07:54:08;;;;;;;4.70;1.60;;;15.40;91.10;23.00;98595.00;;;;5047539;28;20692;-74
2021/05/16 07:56:34;;;;;;;3.70;1.30;;;15.40;91.10;23.10;98594.00;;;;5053593;28;20216;-74
2021/05/16 07:59:00;;;;;;;4.33;1.40;;;15.40;91.10;23.20;98601.00;;;;5054743;28;20431;-74
2021/05/16 08:01:26;;;;;;;3.70;1.10;;;15.40;91.10;23.20;98602.00;;;;5053925;28;20204;-74
2021/05/16 08:03:52;;;;;;;3.40;1.17;;;15.40;91.10;23.30;98595.00;;;;5070705;28;20960;-74
2021/05/16 08:06:17;;;;;;;4.23;1.20;;;15.40;91.10;23.30;98595.00;;;;5037033;28;20197;-74
2021/05/16 08:08:43;;;;;;;3.47;1.20;;;15.40;91.10;23.40;98609.00;;;;5053381;28;20516;-73
2021/05/16 08:11:09;;;;;;;3.90;1.30;;;15.40;91.10;23.30;98617.00;;;;5071444;28;20578;-74
2021/05/16 08:13:35;;;;;;;4.87;1.27;;;15.40;91.10;23.40;98603.00;;;;5054673;28;20199;-74
2021/05/16 08:16:00;;;;;;;3.87;1.47;;;15.40;91.10;23.30;98604.00;;;;5069957;28;20209;-74
2021/05/16 08:18:26;;;;;;;3.60;1.30;;;15.40;91.20;23.30;98624.00;;;;5054440;28;20177;-74
2021/05/16 08:20:52;;;;;;;4.10;1.40;;;15.40;91.20;23.40;98622.00;;;;5070683;28;20209;-74
2021/05/16 08:23:18;;;;;;;5.07;1.37;;;15.40;91.20;23.50;98628.00;;;;5053458;28;20236;-75
2021/05/16 08:25:43;;;;;;;5.23;1.60;;;15.40;91.10;23.40;98627.00;;;;5036514;28;20211;-75
2021/05/16 08:28:09;;;;;;;9.00;1.60;;;15.40;90.90;23.40;98622.00;;;;5070758;28;20644;-75
2021/05/16 08:30:36;;;;;;;6.40;1.90;;;15.40;90.60;23.20;98634.00;;;;5069791;28;20237;-75
2021/05/16 08:33:02;;;;;;;5.80;1.60;;;15.40;90.70;23.10;98630.00;;;;5037733;28;20450;-75
2021/05/16 08:35:28;;;;;;;6.97;1.73;;;15.40;90.70;23.40;98634.00;;;;5053398;28;20459;-74
2021/05/16 08:37:54;;;;;;;9.30;1.60;;;15.40;90.70;23.20;98636.00;;;;5036877;28;20463;-75
2021/05/16 08:40:20;;;;;;;7.27;1.80;;;15.40;90.60;23.30;98620.00;;;;5069543;28;20203;-75
2021/05/16 08:42:45;;;;;;;5.70;1.57;;;15.40;90.70;23.30;98639.00;;;;5053650;28;20205;-74
2021/05/16 08:45:13;;;;;;;5.47;1.70;;;15.40;90.70;23.30;98634.00;;;;5069686;28;20816;-75
2021/05/16 08:47:43;;;;;;;4.83;1.40;;;15.40;90.70;23.30;98620.00;;;;5036880;28;20432;-75
2021/05/16 08:50:13;;;;;;;5.63;1.77;;;15.40;90.60;23.30;98640.00;;;;5036700;28;20457;-74
2021/05/16 08:52:38;;;;;;;6.80;1.30;;;15.40;90.50;23.20;98643.00;;;;5037291;28;20975;-74
2021/05/16 08:55:06;;;;;;;4.67;1.20;;;15.40;90.50;23.40;98632.00;;;;5067977;28;20495;-75
2021/05/16 08:57:31;;;;;;;6.17;1.77;;;15.40;90.30;23.30;98638.00;;;;5069850;28;20481;-74
2021/05/16 09:00:21;;;;;;;6.83;2.23;;;15.40;90.40;23.50;98630.00;;;;5070485;28;20591;-74
2021/05/16 09:03:09;;;;;;;6.40;1.20;;;15.40;90.50;23.30;98636.00;;;;5055444;28;20316;-75
2021/05/16 09:05:38;;;;;;;4.53;1.60;;;15.50;90.50;23.20;98647.00;;;;5071240;28;20451;-75
2021/05/16 09:08:12;;;;;;;4.17;1.30;;;15.40;90.50;23.20;98644.00;;;;5070645;28;20428;-74
2021/05/16 09:10:42;;;;;;;3.53;1.10;;;15.40;90.30;23.20;98643.00;;;;5036900;28;20459;-75
2021/05/16 09:13:27;;;;;;;4.40;1.37;;;15.40;90.20;23.10;98644.00;;;;5071618;28;20412;-74
2021/05/16 09:16:15;;;;;;;6.17;1.00;;;15.50;90.10;23.20;98639.00;;;;5041977;28;20795;-75
2021/05/16 09:18:52;;;;;;;4.80;1.50;;;15.40;90.10;23.00;98648.00;;;;5053846;28;20445;-74
2021/05/16 09:21:32;;;;;;;4.37;1.07;;;15.50;90.50;23.10;98651.00;;;;5071520;28;20823;-74
2021/05/16 09:24:05;;;;;;;5.50;1.40;;;15.50;90.20;23.20;98652.00;;;;5054417;28;20475;-74
2021/05/16 09:26:33;;;;;;;4.77;1.27;;;15.50;90.10;23.10;98655.00;;;;5053328;28;20407;-75
2021/05/16 09:29:33;;;;;;;3.30;1.20;;;15.50;89.80;23.30;98654.00;;;;5033282;28;20762;-75
2021/05/16 09:32:00;;;;;;;3.23;1.07;;;15.50;90.20;23.30;98656.00;;;;5064040;28;20486;-74
2021/05/16 09:34:27;;;;;;;3.67;1.20;;;15.50;90.30;23.10;98656.00;;;;5070164;28;20448;-75
2021/05/16 09:36:54;;;;;;;3.30;1.10;;;15.50;90.40;23.20;98648.00;;;;5051630;28;20783;-75
2021/05/16 09:39:30;;;;;;;3.67;1.20;;;15.50;90.40;23.10;98656.00;;;;5036104;28;20708;-74
2021/05/16 09:42:00;;;;;;;4.03;1.20;;;15.50;90.30;23.30;98654.00;;;;5053730;28;20413;-75
2021/05/16 09:44:48;;;;;;;4.00;1.20;;;15.50;90.30;23.30;98649.00;;;;5069282;28;20562;-74
2021/05/16 09:47:28;;;;;;;3.67;1.60;;;15.50;90.20;23.10;98650.00;;;;5053120;28;20539;-75
2021/05/16 09:50:01;;;;;;;3.70;1.13;;;15.50;90.30;23.00;98656.00;;;;5052595;28;20426;-75
2021/05/16 09:52:34;;;;;;;3.90;1.53;;;15.50;90.30;23.10;98647.00;;;;5053339;28;20461;-75
2021/05/16 09:55:08;;;;;;;4.80;1.83;;;15.50;89.80;23.10;98649.00;;;;5036895;28;20433;-74
2021/05/16 09:57:39;;;;;;;4.90;1.87;;;15.50;89.50;23.10;98655.00;;;;5035907;28;20898;-75
2021/05/16 10:00:12;;;;;;;3.67;1.30;;;15.50;89.60;23.30;98651.00;;;;5035790;28;20791;-74
2021/05/16 10:02:38;;;;;;;6.13;1.50;;;15.50;88.80;23.30;98662.00;;;;5067830;28;20732;-74
2021/05/16 10:05:07;;;;;;;3.73;1.30;;;15.50;88.30;23.40;98653.00;;;;5052441;28;20950;-74
2021/05/16 10:07:33;;;;;;;3.63;1.30;;;15.50;88.20;23.30;98655.00;;;;5051544;28;20910;-74
2021/05/16 10:09:58;;;;;;;3.80;1.37;;;15.50;88.80;23.40;98655.00;;;;5034803;28;20455;-75
2021/05/16 10:12:24;;;;;;;4.80;1.17;;;15.50;89.30;23.30;98656.00;;;;5052065;28;20192;-74
2021/05/16 10:15:01;;;;;;;3.70;1.40;;;15.50;90.00;23.30;98657.00;;;;5068736;28;20490;-74
2021/05/16 10:17:26;;;;;;;3.47;1.20;;;15.50;90.00;23.40;98647.00;;;;5069365;28;20943;-74
2021/05/16 10:19:52;;;;;;;3.57;1.30;;;15.60;89.80;23.20;98655.00;;;;5036008;28;20451;-75
2021/05/16 10:22:18;;;;;;;4.07;1.60;;;15.60;89.60;23.40;98650.00;;;;5052071;28;20678;-75
2021/05/16 10:24:51;;;;;;;4.63;1.10;;;15.60;89.50;23.60;98645.00;;;;5035799;28;20777;-75
2021/05/16 10:27:25;;;;;;;3.90;1.20;;;15.60;89.40;23.30;98651.00;;;;5019135;28;20442;-74
2021/05/16 10:30:05;;;;;;;3.97;1.20;;;15.60;89.30;23.40;98653.00;;;;5070139;28;20800;-75
2021/05/16 10:32:47;;;;;;;6.13;1.30;;;15.60;89.30;23.50;98652.00;;;;5052132;28;20859;-75
2021/05/16 10:35:13;;;;;;;3.70;1.50;;;15.60;89.10;23.60;98647.00;;;;5053577;28;20516;-75
2021/05/16 10:37:53;;;;;;;3.47;1.10;;;15.60;89.00;23.60;98656.00;;;;5051117;28;20432;-75
2021/05/16 10:40:28;;;;;;;3.70;1.40;;;15.60;89.10;23.40;98658.00;;;;5052210;28;20447;-75
2021/05/16 10:43:05;;;;;;;3.83;1.20;;;15.60;89.20;23.50;98656.00;;;;5067971;28;20960;-75
2021/05/16 10:45:38;;;;;;;3.80;1.20;;;15.60;89.20;23.30;98652.00;;;;5067153;28;20449;-75
2021/05/16 10:48:16;;;;;;;8.57;1.33;;;15.70;89.30;23.30;98647.00;;;;5068309;28;20450;-75
2021/05/16 10:50:59;;;;;;;4.00;1.40;;;15.70;89.40;23.60;98639.00;;;;5051925;28;20462;-75
2021/05/16 10:53:46;;;;;;;4.07;1.30;;;15.70;89.30;23.40;98642.00;;;;5036520;28;20414;-76
2021/05/16 10:56:19;;;;;;;4.17;1.33;;;15.70;89.00;23.60;98633.00;;;;5067914;28;20446;-76
2021/05/16 10:58:50;;;;;;;4.77;1.30;;;15.70;89.10;23.60;98635.00;;;;5051899;28;20406;-75